sensor_id;sensor_type;location;lat;lon;timestamp;temperature;humidity
2899;DHT22;1459;50.864;6.438;2022-10-16T00:01:28;13.60;99.90
2899;DHT22;1459;50.864;6.438;2022-10-16T00:03:56;13.60;99.90
2899;DHT22;1459;50.864;6.438;2022-10-16T00:06:28;13.60;99.90
2899;DHT22;1459;50.864;6.438;2022-10-16T00:08:55;13.60;99.90
2899;DHT22;1459;50.864;6.438;2022-10-16T00:11:25;13.60;99.90
2899;DHT22;1459;50.864;6.438;2022-10-16T00:13:56;13.60;99.90
2899;DHT22;1459;50.864;6.438;2022-10-16T00:16:25;13.50;99.90
2899;DHT22;1459;50.864;6.438;2022-10-16T00:18:52;13.50;99.90
2899;DHT22;1459;50.864;6.438;2022-10-16T00:21:22;13.50;99.90
2899;DHT22;1459;50.864;6.438;2022-10-16T00:23:51;13.50;99.90
2899;DHT22;1459;50.864;6.438;2022-10-16T00:26:19;13.50;99.90
2899;DHT22;1459;50.864;6.438;2022-10-16T00:28:47;13.40;99.90
2899;DHT22;1459;50.864;6.438;2022-10-16T00:31:16;13.40;99.90
2899;DHT22;1459;50.864;6.438;2022-10-16T00:33:44;13.30;99.90
2899;DHT22;1459;50.864;6.438;2022-10-16T00:36:13;13.30;99.90
2899;DHT22;1459;50.864;6.438;2022-10-16T00:38:40;13.20;99.90
2899;DHT22;1459;50.864;6.438;2022-10-16T00:41:11;13.20;99.90
2899;DHT22;1459;50.864;6.438;2022-10-16T00:43:40;13.10;99.90
2899;DHT22;1459;50.864;6.438;2022-10-16T00:46:19;13.10;99.90
2899;DHT22;1459;50.864;6.438;2022-10-16T00:48:49;13.10;99.90
2899;DHT22;1459;50.864;6.438;2022-10-16T00:53:48;13.00;99.90
2899;DHT22;1459;50.864;6.438;2022-10-16T00:56:16;13.00;99.90
2899;DHT22;1459;50.864;6.438;2022-10-16T00:58:43;13.00;99.90
2899;DHT22;1459;50.864;6.438;2022-10-16T01:01:11;12.90;99.90
2899;DHT22;1459;50.864;6.438;2022-10-16T01:03:40;12.90;99.90
2899;DHT22;1459;50.864;6.438;2022-10-16T01:06:21;12.80;99.90
2899;DHT22;1459;50.864;6.438;2022-10-16T01:09:00;12.80;99.90
2899;DHT22;1459;50.864;6.438;2022-10-16T01:11:33;12.70;99.90
2899;DHT22;1459;50.864;6.438;2022-10-16T01:14:08;12.70;99.90
2899;DHT22;1459;50.864;6.438;2022-10-16T01:16:43;12.70;99.90
2899;DHT22;1459;50.864;6.438;2022-10-16T01:19:17;12.70;99.90
2899;DHT22;1459;50.864;6.438;2022-10-16T01:21:48;12.80;99.90
2899;DHT22;1459;50.864;6.438;2022-10-16T01:24:27;12.80;99.90
2899;DHT22;1459;50.864;6.438;2022-10-16T01:27:12;12.70;99.90
2899;DHT22;1459;50.864;6.438;2022-10-16T01:29:48;12.70;99.90
2899;DHT22;1459;50.864;6.438;2022-10-16T01:32:19;12.70;99.90
2899;DHT22;1459;50.864;6.438;2022-10-16T01:34:50;12.70;99.90
2899;DHT22;1459;50.864;6.438;2022-10-16T01:37:29;12.70;99.90
2899;DHT22;1459;50.864;6.438;2022-10-16T01:40:00;12.70;99.90
2899;DHT22;1459;50.864;6.438;2022-10-16T01:42:34;12.80;99.90
2899;DHT22;1459;50.864;6.438;2022-10-16T01:45:02;12.80;99.90
2899;DHT22;1459;50.864;6.438;2022-10-16T01:47:32;12.80;99.90
2899;DHT22;1459;50.864;6.438;2022-10-16T01:50:02;12.80;99.90
2899;DHT22;1459;50.864;6.438;2022-10-16T01:52:33;12.80;99.90
2899;DHT22;1459;50.864;6.438;2022-10-16T01:55:03;12.80;99.90
2899;DHT22;1459;50.864;6.438;2022-10-16T01:57:34;12.90;99.90
2899;DHT22;1459;50.864;6.438;2022-10-16T02:00:07;12.90;99.90
2899;DHT22;1459;50.864;6.438;2022-10-16T02:02:35;12.90;99.90
2899;DHT22;1459;50.864;6.438;2022-10-16T02:05:10;12.90;99.90
2899;DHT22;1459;50.864;6.438;2022-10-16T02:07:39;12.90;99.90
2899;DHT22;1459;50.864;6.438;2022-10-16T02:10:08;12.90;99.90
2899;DHT22;1459;50.864;6.438;2022-10-16T02:12:40;13.00;99.90
2899;DHT22;1459;50.864;6.438;2022-10-16T02:15:09;13.00;99.90
2899;DHT22;1459;50.864;6.438;2022-10-16T02:17:36;13.10;99.90
2899;DHT22;1459;50.864;6.438;2022-10-16T02:20:04;13.10;99.90
2899;DHT22;1459;50.864;6.438;2022-10-16T02:22:35;13.10;99.90
2899;DHT22;1459;50.864;6.438;2022-10-16T02:25:10;13.20;99.90
2899;DHT22;1459;50.864;6.438;2022-10-16T02:27:43;13.20;99.90
2899;DHT22;1459;50.864;6.438;2022-10-16T02:30:17;13.30;99.90
2899;DHT22;1459;50.864;6.438;2022-10-16T02:32:47;13.30;99.90
2899;DHT22;1459;50.864;6.438;2022-10-16T02:35:17;13.30;99.90
2899;DHT22;1459;50.864;6.438;2022-10-16T02:37:45;13.30;99.90
2899;DHT22;1459;50.864;6.438;2022-10-16T02:40:13;13.30;99.90
2899;DHT22;1459;50.864;6.438;2022-10-16T02:42:42;13.20;99.90
2899;DHT22;1459;50.864;6.438;2022-10-16T02:45:12;13.20;99.90
2899;DHT22;1459;50.864;6.438;2022-10-16T02:47:39;13.10;99.90
2899;DHT22;1459;50.864;6.438;2022-10-16T02:50:06;13.10;99.90
2899;DHT22;1459;50.864;6.438;2022-10-16T02:52:33;13.10;99.90
2899;DHT22;1459;50.864;6.438;2022-10-16T02:55:01;13.10;99.90
2899;DHT22;1459;50.864;6.438;2022-10-16T02:57:28;13.10;99.90
2899;DHT22;1459;50.864;6.438;2022-10-16T02:59:56;13.10;99.90
2899;DHT22;1459;50.864;6.438;2022-10-16T03:02:23;13.10;99.90
2899;DHT22;1459;50.864;6.438;2022-10-16T03:04:50;13.10;99.90
2899;DHT22;1459;50.864;6.438;2022-10-16T03:07:17;13.10;99.90
2899;DHT22;1459;50.864;6.438;2022-10-16T03:09:44;13.00;99.90
2899;DHT22;1459;50.864;6.438;2022-10-16T03:12:13;13.00;99.90
2899;DHT22;1459;50.864;6.438;2022-10-16T03:14:40;13.00;99.90
2899;DHT22;1459;50.864;6.438;2022-10-16T03:17:09;13.00;99.90
2899;DHT22;1459;50.864;6.438;2022-10-16T03:19:36;13.00;99.90
2899;DHT22;1459;50.864;6.438;2022-10-16T03:22:03;13.00;99.90
2899;DHT22;1459;50.864;6.438;2022-10-16T03:24:30;13.00;99.90
2899;DHT22;1459;50.864;6.438;2022-10-16T03:26:56;13.00;99.90
2899;DHT22;1459;50.864;6.438;2022-10-16T03:29:26;13.00;99.90
2899;DHT22;1459;50.864;6.438;2022-10-16T03:31:55;13.10;99.90
2899;DHT22;1459;50.864;6.438;2022-10-16T03:34:23;13.10;99.90
2899;DHT22;1459;50.864;6.438;2022-10-16T03:36:51;13.00;99.90
2899;DHT22;1459;50.864;6.438;2022-10-16T03:39:18;13.10;99.90
2899;DHT22;1459;50.864;6.438;2022-10-16T03:41:45;13.10;99.90
2899;DHT22;1459;50.864;6.438;2022-10-16T03:44:13;13.10;99.90
2899;DHT22;1459;50.864;6.438;2022-10-16T03:46:40;13.10;99.90
2899;DHT22;1459;50.864;6.438;2022-10-16T03:49:07;13.10;99.90
2899;DHT22;1459;50.864;6.438;2022-10-16T03:51:36;13.10;99.90
2899;DHT22;1459;50.864;6.438;2022-10-16T03:54:03;13.20;99.90
2899;DHT22;1459;50.864;6.438;2022-10-16T03:56:30;13.20;99.90
2899;DHT22;1459;50.864;6.438;2022-10-16T03:58:57;13.20;99.90
2899;DHT22;1459;50.864;6.438;2022-10-16T04:01:24;13.20;99.90
2899;DHT22;1459;50.864;6.438;2022-10-16T04:03:51;13.20;99.90
2899;DHT22;1459;50.864;6.438;2022-10-16T04:06:18;13.10;99.90
2899;DHT22;1459;50.864;6.438;2022-10-16T04:08:46;13.10;99.90
2899;DHT22;1459;50.864;6.438;2022-10-16T04:11:14;13.10;99.90
2899;DHT22;1459;50.864;6.438;2022-10-16T04:13:41;13.10;99.90
2899;DHT22;1459;50.864;6.438;2022-10-16T04:16:08;13.00;99.90
2899;DHT22;1459;50.864;6.438;2022-10-16T04:18:35;13.00;99.90
2899;DHT22;1459;50.864;6.438;2022-10-16T04:21:05;12.90;99.90
2899;DHT22;1459;50.864;6.438;2022-10-16T04:23:33;12.90;99.90
2899;DHT22;1459;50.864;6.438;2022-10-16T04:26:02;12.90;99.90
2899;DHT22;1459;50.864;6.438;2022-10-16T04:28:29;12.80;99.90
2899;DHT22;1459;50.864;6.438;2022-10-16T04:30:56;12.80;99.90
2899;DHT22;1459;50.864;6.438;2022-10-16T04:33:23;12.80;99.90
2899;DHT22;1459;50.864;6.438;2022-10-16T04:35:56;12.70;99.90
2899;DHT22;1459;50.864;6.438;2022-10-16T04:38:23;12.70;99.90
2899;DHT22;1459;50.864;6.438;2022-10-16T04:40:51;12.60;99.90
2899;DHT22;1459;50.864;6.438;2022-10-16T04:43:20;12.60;99.90
2899;DHT22;1459;50.864;6.438;2022-10-16T04:45:48;12.60;99.90
2899;DHT22;1459;50.864;6.438;2022-10-16T04:48:16;12.50;99.90
2899;DHT22;1459;50.864;6.438;2022-10-16T04:50:44;12.50;99.90
2899;DHT22;1459;50.864;6.438;2022-10-16T04:53:11;12.40;99.90
2899;DHT22;1459;50.864;6.438;2022-10-16T04:55:38;12.40;99.90
2899;DHT22;1459;50.864;6.438;2022-10-16T04:58:05;12.40;99.90
2899;DHT22;1459;50.864;6.438;2022-10-16T05:00:34;12.40;99.90
2899;DHT22;1459;50.864;6.438;2022-10-16T05:03:01;12.30;99.90
2899;DHT22;1459;50.864;6.438;2022-10-16T05:05:31;12.30;99.90
2899;DHT22;1459;50.864;6.438;2022-10-16T05:07:58;12.30;99.90
2899;DHT22;1459;50.864;6.438;2022-10-16T05:10:25;12.20;99.90
2899;DHT22;1459;50.864;6.438;2022-10-16T05:12:52;12.20;99.90
2899;DHT22;1459;50.864;6.438;2022-10-16T05:15:22;12.20;99.90
2899;DHT22;1459;50.864;6.438;2022-10-16T05:17:53;12.20;99.90
2899;DHT22;1459;50.864;6.438;2022-10-16T05:20:21;12.20;99.90
2899;DHT22;1459;50.864;6.438;2022-10-16T05:22:49;12.20;99.90
2899;DHT22;1459;50.864;6.438;2022-10-16T05:25:16;12.20;99.90
2899;DHT22;1459;50.864;6.438;2022-10-16T05:27:46;12.20;99.90
2899;DHT22;1459;50.864;6.438;2022-10-16T05:30:13;12.20;99.90
2899;DHT22;1459;50.864;6.438;2022-10-16T05:32:40;12.20;99.90
2899;DHT22;1459;50.864;6.438;2022-10-16T05:35:09;12.20;99.90
2899;DHT22;1459;50.864;6.438;2022-10-16T05:37:38;12.20;99.90
2899;DHT22;1459;50.864;6.438;2022-10-16T05:40:06;12.20;99.90
2899;DHT22;1459;50.864;6.438;2022-10-16T05:42:33;12.20;99.90
2899;DHT22;1459;50.864;6.438;2022-10-16T05:45:00;12.20;99.90
2899;DHT22;1459;50.864;6.438;2022-10-16T05:47:27;12.20;99.90
2899;DHT22;1459;50.864;6.438;2022-10-16T05:49:54;12.20;99.90
2899;DHT22;1459;50.864;6.438;2022-10-16T05:52:23;12.20;99.90
2899;DHT22;1459;50.864;6.438;2022-10-16T05:54:50;12.20;99.90
2899;DHT22;1459;50.864;6.438;2022-10-16T05:57:17;12.20;99.90
2899;DHT22;1459;50.864;6.438;2022-10-16T05:59:44;12.20;99.90
2899;DHT22;1459;50.864;6.438;2022-10-16T06:02:12;12.20;99.90
2899;DHT22;1459;50.864;6.438;2022-10-16T06:04:39;12.20;99.90
2899;DHT22;1459;50.864;6.438;2022-10-16T06:07:06;12.30;99.90
2899;DHT22;1459;50.864;6.438;2022-10-16T06:09:35;12.30;99.90
2899;DHT22;1459;50.864;6.438;2022-10-16T06:12:02;12.30;99.90
2899;DHT22;1459;50.864;6.438;2022-10-16T06:14:29;12.30;99.90
2899;DHT22;1459;50.864;6.438;2022-10-16T06:16:56;12.40;99.90
2899;DHT22;1459;50.864;6.438;2022-10-16T06:19:23;12.40;99.90
2899;DHT22;1459;50.864;6.438;2022-10-16T06:21:50;12.40;99.90
2899;DHT22;1459;50.864;6.438;2022-10-16T06:24:17;12.50;99.90
2899;DHT22;1459;50.864;6.438;2022-10-16T06:26:45;12.60;99.90
2899;DHT22;1459;50.864;6.438;2022-10-16T06:29:12;12.60;99.90
2899;DHT22;1459;50.864;6.438;2022-10-16T06:31:40;12.70;99.90
2899;DHT22;1459;50.864;6.438;2022-10-16T06:34:08;12.70;99.90
2899;DHT22;1459;50.864;6.438;2022-10-16T06:36:37;12.80;99.90
2899;DHT22;1459;50.864;6.438;2022-10-16T06:39:05;12.80;99.90
2899;DHT22;1459;50.864;6.438;2022-10-16T06:41:33;12.80;99.90
2899;DHT22;1459;50.864;6.438;2022-10-16T06:44:04;12.90;99.90
2899;DHT22;1459;50.864;6.438;2022-10-16T06:46:31;12.90;99.90
2899;DHT22;1459;50.864;6.438;2022-10-16T06:48:58;13.00;99.90
2899;DHT22;1459;50.864;6.438;2022-10-16T06:51:25;13.10;99.90
2899;DHT22;1459;50.864;6.438;2022-10-16T06:53:54;13.20;99.90
2899;DHT22;1459;50.864;6.438;2022-10-16T06:56:24;13.30;99.90
2899;DHT22;1459;50.864;6.438;2022-10-16T06:58:51;13.30;99.90
2899;DHT22;1459;50.864;6.438;2022-10-16T07:01:21;13.30;99.90
2899;DHT22;1459;50.864;6.438;2022-10-16T07:03:48;13.30;99.90
2899;DHT22;1459;50.864;6.438;2022-10-16T07:06:17;13.30;99.90
2899;DHT22;1459;50.864;6.438;2022-10-16T07:08:46;13.30;99.90
2899;DHT22;1459;50.864;6.438;2022-10-16T07:11:14;13.30;99.90
2899;DHT22;1459;50.864;6.438;2022-10-16T07:13:43;13.30;99.90
2899;DHT22;1459;50.864;6.438;2022-10-16T07:16:12;13.30;99.90
2899;DHT22;1459;50.864;6.438;2022-10-16T07:18:41;13.30;99.90
2899;DHT22;1459;50.864;6.438;2022-10-16T07:21:12;13.30;99.90
2899;DHT22;1459;50.864;6.438;2022-10-16T07:23:39;13.30;99.90
2899;DHT22;1459;50.864;6.438;2022-10-16T07:26:08;13.40;99.90
2899;DHT22;1459;50.864;6.438;2022-10-16T07:28:37;13.40;99.90
2899;DHT22;1459;50.864;6.438;2022-10-16T07:31:06;13.40;99.90
2899;DHT22;1459;50.864;6.438;2022-10-16T07:33:36;13.40;99.90
2899;DHT22;1459;50.864;6.438;2022-10-16T07:36:05;13.40;99.90
2899;DHT22;1459;50.864;6.438;2022-10-16T07:38:32;13.40;99.90
2899;DHT22;1459;50.864;6.438;2022-10-16T07:41:01;13.50;99.90
2899;DHT22;1459;50.864;6.438;2022-10-16T07:43:29;13.50;99.90
2899;DHT22;1459;50.864;6.438;2022-10-16T07:45:57;13.50;99.90
2899;DHT22;1459;50.864;6.438;2022-10-16T07:48:29;13.50;99.90
2899;DHT22;1459;50.864;6.438;2022-10-16T07:50:57;13.50;99.90
2899;DHT22;1459;50.864;6.438;2022-10-16T07:53:26;13.60;99.90
2899;DHT22;1459;50.864;6.438;2022-10-16T07:55:57;13.60;99.90
2899;DHT22;1459;50.864;6.438;2022-10-16T07:58:27;13.70;99.90
2899;DHT22;1459;50.864;6.438;2022-10-16T08:00:55;13.70;99.90
2899;DHT22;1459;50.864;6.438;2022-10-16T08:03:23;13.80;99.90
2899;DHT22;1459;50.864;6.438;2022-10-16T08:05:50;13.90;99.90
2899;DHT22;1459;50.864;6.438;2022-10-16T08:08:18;14.00;99.90
2899;DHT22;1459;50.864;6.438;2022-10-16T08:10:47;14.20;99.90
2899;DHT22;1459;50.864;6.438;2022-10-16T08:13:14;14.30;99.90
2899;DHT22;1459;50.864;6.438;2022-10-16T08:15:41;14.40;99.90
2899;DHT22;1459;50.864;6.438;2022-10-16T08:18:10;14.50;99.90
2899;DHT22;1459;50.864;6.438;2022-10-16T08:20:37;14.60;99.90
2899;DHT22;1459;50.864;6.438;2022-10-16T08:23:05;14.70;99.90
2899;DHT22;1459;50.864;6.438;2022-10-16T08:25:34;14.80;99.90
2899;DHT22;1459;50.864;6.438;2022-10-16T08:28:05;14.90;99.90
2899;DHT22;1459;50.864;6.438;2022-10-16T08:30:32;15.00;99.90
2899;DHT22;1459;50.864;6.438;2022-10-16T08:32:59;15.00;99.90
2899;DHT22;1459;50.864;6.438;2022-10-16T08:35:27;15.10;99.90
2899;DHT22;1459;50.864;6.438;2022-10-16T08:37:54;15.20;99.90
2899;DHT22;1459;50.864;6.438;2022-10-16T08:40:25;15.20;99.90
2899;DHT22;1459;50.864;6.438;2022-10-16T08:43:22;15.30;99.90
2899;DHT22;1459;50.864;6.438;2022-10-16T08:46:07;15.40;99.90
2899;DHT22;1459;50.864;6.438;2022-10-16T08:48:45;15.50;99.90
2899;DHT22;1459;50.864;6.438;2022-10-16T08:51:19;15.60;99.90
2899;DHT22;1459;50.864;6.438;2022-10-16T08:53:52;15.60;99.90
2899;DHT22;1459;50.864;6.438;2022-10-16T08:56:21;15.70;99.90
2899;DHT22;1459;50.864;6.438;2022-10-16T08:58:50;15.80;99.90
2899;DHT22;1459;50.864;6.438;2022-10-16T09:01:19;15.80;99.90
2899;DHT22;1459;50.864;6.438;2022-10-16T09:04:20;15.90;99.90
2899;DHT22;1459;50.864;6.438;2022-10-16T09:06:57;15.90;99.90
2899;DHT22;1459;50.864;6.438;2022-10-16T09:09:41;16.00;99.90
2899;DHT22;1459;50.864;6.438;2022-10-16T09:12:17;16.10;99.90
2899;DHT22;1459;50.864;6.438;2022-10-16T09:14:56;16.10;99.90
2899;DHT22;1459;50.864;6.438;2022-10-16T09:17:32;16.10;99.90
2899;DHT22;1459;50.864;6.438;2022-10-16T09:20:18;16.20;99.90
2899;DHT22;1459;50.864;6.438;2022-10-16T09:22:51;16.30;99.90
2899;DHT22;1459;50.864;6.438;2022-10-16T09:25:21;16.30;99.90
2899;DHT22;1459;50.864;6.438;2022-10-16T09:27:52;16.40;99.90
2899;DHT22;1459;50.864;6.438;2022-10-16T09:30:28;16.50;99.90
2899;DHT22;1459;50.864;6.438;2022-10-16T09:33:10;16.50;99.90
2899;DHT22;1459;50.864;6.438;2022-10-16T09:35:40;16.50;99.90
2899;DHT22;1459;50.864;6.438;2022-10-16T09:38:09;16.60;99.90
2899;DHT22;1459;50.864;6.438;2022-10-16T09:40:47;16.70;99.90
2899;DHT22;1459;50.864;6.438;2022-10-16T09:43:20;16.70;99.90
2899;DHT22;1459;50.864;6.438;2022-10-16T09:46:04;16.80;99.90
2899;DHT22;1459;50.864;6.438;2022-10-16T09:48:36;17.00;99.90
2899;DHT22;1459;50.864;6.438;2022-10-16T09:51:06;17.00;99.90
2899;DHT22;1459;50.864;6.438;2022-10-16T09:53:41;17.00;99.90
2899;DHT22;1459;50.864;6.438;2022-10-16T09:56:10;17.10;99.90
2899;DHT22;1459;50.864;6.438;2022-10-16T09:58:42;17.20;99.90
2899;DHT22;1459;50.864;6.438;2022-10-16T10:01:16;17.30;99.90
2899;DHT22;1459;50.864;6.438;2022-10-16T10:04:36;17.30;99.90
2899;DHT22;1459;50.864;6.438;2022-10-16T10:07:04;17.50;99.90
2899;DHT22;1459;50.864;6.438;2022-10-16T10:09:42;17.60;99.90
2899;DHT22;1459;50.864;6.438;2022-10-16T10:12:18;17.60;99.90
2899;DHT22;1459;50.864;6.438;2022-10-16T10:14:47;17.80;99.90
2899;DHT22;1459;50.864;6.438;2022-10-16T10:17:18;18.00;99.90
2899;DHT22;1459;50.864;6.438;2022-10-16T10:19:52;18.00;99.90
2899;DHT22;1459;50.864;6.438;2022-10-16T10:22:31;18.10;99.90
2899;DHT22;1459;50.864;6.438;2022-10-16T10:25:26;18.10;99.90
2899;DHT22;1459;50.864;6.438;2022-10-16T10:28:14;18.10;99.90
2899;DHT22;1459;50.864;6.438;2022-10-16T10:30:52;18.00;99.90
2899;DHT22;1459;50.864;6.438;2022-10-16T10:33:30;18.00;99.90
2899;DHT22;1459;50.864;6.438;2022-10-16T10:38:57;18.00;99.90
2899;DHT22;1459;50.864;6.438;2022-10-16T10:41:57;17.90;99.90
2899;DHT22;1459;50.864;6.438;2022-10-16T10:44:57;17.80;99.90
2899;DHT22;1459;50.864;6.438;2022-10-16T10:47:38;17.90;99.90
2899;DHT22;1459;50.864;6.438;2022-10-16T10:50:19;17.90;99.90
2899;DHT22;1459;50.864;6.438;2022-10-16T10:52:58;17.80;99.90
2899;DHT22;1459;50.864;6.438;2022-10-16T10:55:33;17.80;99.90
2899;DHT22;1459;50.864;6.438;2022-10-16T10:58:31;17.80;99.90
2899;DHT22;1459;50.864;6.438;2022-10-16T11:01:08;17.80;99.90
2899;DHT22;1459;50.864;6.438;2022-10-16T11:03:53;17.80;99.90
2899;DHT22;1459;50.864;6.438;2022-10-16T11:06:29;17.80;99.90
2899;DHT22;1459;50.864;6.438;2022-10-16T11:09:00;17.80;99.90
2899;DHT22;1459;50.864;6.438;2022-10-16T11:11:32;17.90;99.90
2899;DHT22;1459;50.864;6.438;2022-10-16T11:14:05;18.00;99.90
2899;DHT22;1459;50.864;6.438;2022-10-16T11:16:37;18.10;99.90
2899;DHT22;1459;50.864;6.438;2022-10-16T11:19:14;18.20;99.90
2899;DHT22;1459;50.864;6.438;2022-10-16T11:22:04;18.20;99.90
2899;DHT22;1459;50.864;6.438;2022-10-16T11:24:40;18.30;99.90
2899;DHT22;1459;50.864;6.438;2022-10-16T11:27:15;18.40;99.90
2899;DHT22;1459;50.864;6.438;2022-10-16T11:29:56;18.60;99.90
2899;DHT22;1459;50.864;6.438;2022-10-16T11:32:35;18.70;99.90
2899;DHT22;1459;50.864;6.438;2022-10-16T11:35:08;18.80;99.90
2899;DHT22;1459;50.864;6.438;2022-10-16T11:37:43;18.80;99.90
2899;DHT22;1459;50.864;6.438;2022-10-16T11:40:21;18.90;99.90
2899;DHT22;1459;50.864;6.438;2022-10-16T11:42:54;19.10;99.90
2899;DHT22;1459;50.864;6.438;2022-10-16T11:45:30;19.30;99.90
2899;DHT22;1459;50.864;6.438;2022-10-16T11:48:12;19.50;99.90
2899;DHT22;1459;50.864;6.438;2022-10-16T11:50:46;19.60;99.90
2899;DHT22;1459;50.864;6.438;2022-10-16T11:53:34;19.70;99.90
2899;DHT22;1459;50.864;6.438;2022-10-16T11:56:05;20.00;99.90
2899;DHT22;1459;50.864;6.438;2022-10-16T11:58:37;20.30;99.90
2899;DHT22;1459;50.864;6.438;2022-10-16T12:01:17;20.40;99.90
2899;DHT22;1459;50.864;6.438;2022-10-16T12:03:48;20.50;99.90
2899;DHT22;1459;50.864;6.438;2022-10-16T12:06:29;20.60;99.90
2899;DHT22;1459;50.864;6.438;2022-10-16T12:09:02;20.60;99.90
2899;DHT22;1459;50.864;6.438;2022-10-16T12:11:35;20.40;99.90
2899;DHT22;1459;50.864;6.438;2022-10-16T12:16:55;20.50;99.90
2899;DHT22;1459;50.864;6.438;2022-10-16T12:19:25;20.60;99.90
2899;DHT22;1459;50.864;6.438;2022-10-16T12:21:55;20.40;99.90
2899;DHT22;1459;50.864;6.438;2022-10-16T12:24:33;20.40;99.90
2899;DHT22;1459;50.864;6.438;2022-10-16T12:27:01;20.50;99.90
2899;DHT22;1459;50.864;6.438;2022-10-16T12:29:33;20.60;99.90
2899;DHT22;1459;50.864;6.438;2022-10-16T12:32:04;20.70;99.90
2899;DHT22;1459;50.864;6.438;2022-10-16T12:34:38;20.90;99.90
2899;DHT22;1459;50.864;6.438;2022-10-16T12:37:12;21.00;99.90
2899;DHT22;1459;50.864;6.438;2022-10-16T12:39:43;21.10;99.90
2899;DHT22;1459;50.864;6.438;2022-10-16T12:42:31;21.10;99.90
2899;DHT22;1459;50.864;6.438;2022-10-16T12:45:00;21.10;99.90
2899;DHT22;1459;50.864;6.438;2022-10-16T12:47:49;21.10;99.90
2899;DHT22;1459;50.864;6.438;2022-10-16T12:50:30;21.10;99.90
2899;DHT22;1459;50.864;6.438;2022-10-16T12:52:58;21.10;99.90
2899;DHT22;1459;50.864;6.438;2022-10-16T12:55:27;21.10;99.90
2899;DHT22;1459;50.864;6.438;2022-10-16T12:58:24;21.00;99.90
2899;DHT22;1459;50.864;6.438;2022-10-16T13:00:57;20.80;99.90
2899;DHT22;1459;50.864;6.438;2022-10-16T13:03:46;20.60;99.90
2899;DHT22;1459;50.864;6.438;2022-10-16T13:06:23;20.40;99.90
2899;DHT22;1459;50.864;6.438;2022-10-16T13:09:16;20.20;99.90
2899;DHT22;1459;50.864;6.438;2022-10-16T13:12:00;20.10;99.90
2899;DHT22;1459;50.864;6.438;2022-10-16T13:17:26;20.10;99.90
2899;DHT22;1459;50.864;6.438;2022-10-16T13:20:05;20.10;99.90
2899;DHT22;1459;50.864;6.438;2022-10-16T13:22:44;20.00;99.90
2899;DHT22;1459;50.864;6.438;2022-10-16T13:25:21;19.90;99.90
2899;DHT22;1459;50.864;6.438;2022-10-16T13:27:56;19.80;99.90
2899;DHT22;1459;50.864;6.438;2022-10-16T13:30:25;19.70;99.90
2899;DHT22;1459;50.864;6.438;2022-10-16T13:32:58;19.70;99.90
2899;DHT22;1459;50.864;6.438;2022-10-16T13:35:32;19.80;99.90
2899;DHT22;1459;50.864;6.438;2022-10-16T13:38:12;19.80;99.90
2899;DHT22;1459;50.864;6.438;2022-10-16T13:40:52;19.90;99.90
2899;DHT22;1459;50.864;6.438;2022-10-16T13:43:23;20.10;99.90
2899;DHT22;1459;50.864;6.438;2022-10-16T13:46:00;20.10;99.90
2899;DHT22;1459;50.864;6.438;2022-10-16T13:48:28;20.20;99.90
2899;DHT22;1459;50.864;6.438;2022-10-16T13:51:00;20.20;99.90
2899;DHT22;1459;50.864;6.438;2022-10-16T13:53:29;20.40;99.90
2899;DHT22;1459;50.864;6.438;2022-10-16T13:55:56;20.50;99.90
2899;DHT22;1459;50.864;6.438;2022-10-16T13:58:29;20.70;99.90
2899;DHT22;1459;50.864;6.438;2022-10-16T14:00:58;20.80;99.90
2899;DHT22;1459;50.864;6.438;2022-10-16T14:03:27;21.00;99.90
2899;DHT22;1459;50.864;6.438;2022-10-16T14:05:56;21.00;99.90
2899;DHT22;1459;50.864;6.438;2022-10-16T14:08:25;20.90;99.90
2899;DHT22;1459;50.864;6.438;2022-10-16T14:10:55;20.70;99.90
2899;DHT22;1459;50.864;6.438;2022-10-16T14:13:30;20.60;99.90
2899;DHT22;1459;50.864;6.438;2022-10-16T14:16:01;20.50;99.90
2899;DHT22;1459;50.864;6.438;2022-10-16T14:18:29;20.50;99.90
2899;DHT22;1459;50.864;6.438;2022-10-16T14:21:04;20.40;99.90
2899;DHT22;1459;50.864;6.438;2022-10-16T14:23:35;20.40;99.90
2899;DHT22;1459;50.864;6.438;2022-10-16T14:26:21;20.30;99.90
2899;DHT22;1459;50.864;6.438;2022-10-16T14:29:12;20.30;99.90
2899;DHT22;1459;50.864;6.438;2022-10-16T14:31:40;20.20;99.90
2899;DHT22;1459;50.864;6.438;2022-10-16T14:34:28;20.30;99.90
2899;DHT22;1459;50.864;6.438;2022-10-16T14:36:59;20.40;99.90
2899;DHT22;1459;50.864;6.438;2022-10-16T14:39:30;20.50;99.90
2899;DHT22;1459;50.864;6.438;2022-10-16T14:41:58;20.60;99.90
2899;DHT22;1459;50.864;6.438;2022-10-16T14:44:31;20.60;99.90
2899;DHT22;1459;50.864;6.438;2022-10-16T14:47:08;20.60;99.90
2899;DHT22;1459;50.864;6.438;2022-10-16T14:49:36;20.60;99.90
2899;DHT22;1459;50.864;6.438;2022-10-16T14:52:09;20.50;99.90
2899;DHT22;1459;50.864;6.438;2022-10-16T14:54:37;20.50;99.90
2899;DHT22;1459;50.864;6.438;2022-10-16T14:57:04;20.50;99.90
2899;DHT22;1459;50.864;6.438;2022-10-16T14:59:35;20.60;99.90
2899;DHT22;1459;50.864;6.438;2022-10-16T15:02:18;20.60;99.90
2899;DHT22;1459;50.864;6.438;2022-10-16T15:04:47;20.60;99.90
2899;DHT22;1459;50.864;6.438;2022-10-16T15:07:16;20.70;99.90
2899;DHT22;1459;50.864;6.438;2022-10-16T15:09:46;20.70;99.90
2899;DHT22;1459;50.864;6.438;2022-10-16T15:12:14;20.60;99.90
2899;DHT22;1459;50.864;6.438;2022-10-16T15:14:45;20.50;99.90
2899;DHT22;1459;50.864;6.438;2022-10-16T15:17:14;20.50;99.90
2899;DHT22;1459;50.864;6.438;2022-10-16T15:19:44;20.40;99.90
2899;DHT22;1459;50.864;6.438;2022-10-16T15:22:13;20.30;99.90
2899;DHT22;1459;50.864;6.438;2022-10-16T15:24:40;20.20;99.90
2899;DHT22;1459;50.864;6.438;2022-10-16T15:27:07;20.10;99.90
2899;DHT22;1459;50.864;6.438;2022-10-16T15:29:35;20.00;99.90
2899;DHT22;1459;50.864;6.438;2022-10-16T15:32:04;19.90;99.90
2899;DHT22;1459;50.864;6.438;2022-10-16T15:34:31;19.80;99.90
2899;DHT22;1459;50.864;6.438;2022-10-16T15:37:02;19.70;99.90
2899;DHT22;1459;50.864;6.438;2022-10-16T15:39:29;19.70;99.90
2899;DHT22;1459;50.864;6.438;2022-10-16T15:41:57;19.60;99.90
2899;DHT22;1459;50.864;6.438;2022-10-16T15:44:24;19.60;99.90
2899;DHT22;1459;50.864;6.438;2022-10-16T15:46:55;19.60;99.90
2899;DHT22;1459;50.864;6.438;2022-10-16T15:49:28;19.50;99.90
2899;DHT22;1459;50.864;6.438;2022-10-16T15:51:55;19.50;99.90
2899;DHT22;1459;50.864;6.438;2022-10-16T15:54:24;19.40;99.90
2899;DHT22;1459;50.864;6.438;2022-10-16T15:56:51;19.30;99.90
2899;DHT22;1459;50.864;6.438;2022-10-16T15:59:18;19.20;99.90
2899;DHT22;1459;50.864;6.438;2022-10-16T16:01:45;19.20;99.90
2899;DHT22;1459;50.864;6.438;2022-10-16T16:04:14;19.10;99.90
2899;DHT22;1459;50.864;6.438;2022-10-16T16:06:57;19.10;99.90
2899;DHT22;1459;50.864;6.438;2022-10-16T16:09:25;19.00;99.90
2899;DHT22;1459;50.864;6.438;2022-10-16T16:12:00;18.90;99.90
2899;DHT22;1459;50.864;6.438;2022-10-16T16:14:28;18.80;99.90
2899;DHT22;1459;50.864;6.438;2022-10-16T16:16:56;18.70;99.90
2899;DHT22;1459;50.864;6.438;2022-10-16T16:19:25;18.60;99.90
2899;DHT22;1459;50.864;6.438;2022-10-16T16:21:52;18.60;99.90
2899;DHT22;1459;50.864;6.438;2022-10-16T16:24:36;18.50;99.90
2899;DHT22;1459;50.864;6.438;2022-10-16T16:27:08;18.40;99.90
2899;DHT22;1459;50.864;6.438;2022-10-16T16:29:35;18.40;99.90
2899;DHT22;1459;50.864;6.438;2022-10-16T16:32:03;18.30;99.90
2899;DHT22;1459;50.864;6.438;2022-10-16T16:34:30;18.30;99.90
2899;DHT22;1459;50.864;6.438;2022-10-16T16:36:57;18.20;99.90
2899;DHT22;1459;50.864;6.438;2022-10-16T16:39:28;18.20;99.90
2899;DHT22;1459;50.864;6.438;2022-10-16T16:42:02;18.10;99.90